Time;durP1;ratioP1;P1;durP2;ratioP2;P2;SDS_P1;SDS_P2;PMS_P1;PMS_P2;Temp;Humidity;BMP_temperature;BMP_pressure;BME280_temperature;BME280_humidity;BME280_pressure;Samples;Min_cycle;Max_cycle;Signal;HPM_P1;HPM_P2
2023/04/26 00:01:57;;;;;;;5.43;3.28;;;;;;;;;;5115385;28;20475;-64
2023/04/26 00:04:23;;;;;;;4.68;2.92;;;;;;;;;;5114894;28;20055;-65
2023/04/26 00:06:50;;;;;;;4.70;2.90;;;;;;;;;;5115019;28;20043;-64
2023/04/26 00:09:18;;;;;;;4.03;2.60;;;;;;;;;;5114751;28;20202;-65
2023/04/26 00:11:44;;;;;;;6.38;2.72;;;;;;;;;;5114949;28;20043;-65
2023/04/26 00:14:12;;;;;;;4.72;2.92;;;;;;;;;;5115294;28;20048;-65
2023/04/26 00:16:39;;;;;;;5.18;3.28;;;;;;;;;;5114624;28;20047;-65
2023/04/26 00:19:05;;;;;;;5.18;3.20;;;;;;;;;;5114791;28;20095;-65
2023/04/26 00:21:32;;;;;;;8.23;3.00;;;;;;;;;;5114630;28;20047;-65
2023/04/26 00:23:58;;;;;;;6.55;3.20;;;;;;;;;;5114349;28;20051;-64
2023/04/26 00:26:25;;;;;;;6.82;3.08;;;;;;;;;;5113670;28;20048;-65
2023/04/26 00:28:52;;;;;;;4.25;2.67;;;;;;;;;;5114167;28;20474;-64
2023/04/26 00:31:20;;;;;;;4.50;3.00;;;;;;;;;;5113873;28;20058;-64
2023/04/26 00:33:46;;;;;;;5.80;3.10;;;;;;;;;;5113992;28;20048;-64
2023/04/26 00:36:14;;;;;;;5.93;3.40;;;;;;;;;;5114121;28;20043;-64
2023/04/26 00:38:40;;;;;;;4.07;2.90;;;;;;;;;;5114740;28;20100;-65
2023/04/26 00:41:07;;;;;;;3.58;2.72;;;;;;;;;;5114096;28;20051;-65
2023/04/26 00:43:34;;;;;;;3.60;2.60;;;;;;;;;;5113432;28;20506;-65
2023/04/26 00:46:00;;;;;;;5.60;2.65;;;;;;;;;;5114064;28;20047;-64
2023/04/26 00:48:28;;;;;;;5.30;2.72;;;;;;;;;;5113945;28;20054;-65
2023/04/26 00:50:55;;;;;;;5.45;2.90;;;;;;;;;;5113789;27;20058;-64
2023/04/26 00:53:23;;;;;;;6.45;2.90;;;;;;;;;;5114541;28;20082;-65
2023/04/26 00:55:51;;;;;;;5.53;3.15;;;;;;;;;;5113802;28;20043;-65
2023/04/26 00:58:18;;;;;;;4.65;3.25;;;;;;;;;;5113711;28;20062;-65
2023/04/26 01:00:44;;;;;;;5.13;2.72;;;;;;;;;;5113950;28;20039;-64
2023/04/26 01:03:11;;;;;;;6.13;3.13;;;;;;;;;;5113915;28;20047;-65
2023/04/26 01:05:39;;;;;;;4.10;2.90;;;;;;;;;;5114647;28;20051;-64
2023/04/26 01:08:06;;;;;;;6.75;3.03;;;;;;;;;;5113922;28;20058;-65
2023/04/26 01:10:34;;;;;;;9.80;2.97;;;;;;;;;;5114343;28;20048;-64
2023/04/26 01:13:02;;;;;;;4.65;2.75;;;;;;;;;;5113221;28;20048;-64
2023/04/26 01:15:31;;;;;;;4.07;3.03;;;;;;;;;;5113265;28;20051;-65
2023/04/26 01:17:58;;;;;;;5.70;3.15;;;;;;;;;;5113262;28;20073;-64
2023/04/26 01:20:25;;;;;;;5.78;2.80;;;;;;;;;;5113570;28;20540;-64
2023/04/26 01:22:53;;;;;;;4.68;2.88;;;;;;;;;;5113449;28;20130;-64
2023/04/26 01:25:21;;;;;;;5.75;2.97;;;;;;;;;;5113535;28;20048;-65
2023/04/26 01:27:47;;;;;;;4.15;3.00;;;;;;;;;;5113750;28;20066;-64
2023/04/26 01:30:14;;;;;;;6.15;3.17;;;;;;;;;;5113434;28;20054;-65
2023/04/26 01:32:41;;;;;;;8.65;3.45;;;;;;;;;;5113469;28;20044;-64
2023/04/26 01:35:08;;;;;;;4.28;3.13;;;;;;;;;;5113301;28;20496;-65
2023/04/26 01:37:34;;;;;;;3.88;3.30;;;;;;;;;;5113228;28;20408;-64
2023/04/26 01:40:04;;;;;;;5.72;2.72;;;;;;;;;;5113491;28;20499;-65
2023/04/26 01:42:30;;;;;;;5.57;2.83;;;;;;;;;;5113091;28;20514;-65
2023/04/26 01:44:57;;;;;;;5.53;2.72;;;;;;;;;;5113600;28;20469;-65
2023/04/26 01:47:25;;;;;;;4.13;2.90;;;;;;;;;;5113710;28;20485;-65
2023/04/26 01:49:51;;;;;;;4.85;3.25;;;;;;;;;;5109411;28;20044;-65
2023/04/26 01:52:18;;;;;;;5.68;3.00;;;;;;;;;;5092934;28;20055;-65
2023/04/26 01:54:45;;;;;;;5.78;2.95;;;;;;;;;;5095756;28;20071;-64
2023/04/26 01:57:12;;;;;;;3.78;2.85;;;;;;;;;;5097235;28;20048;-65
2023/04/26 01:59:39;;;;;;;4.78;2.78;;;;;;;;;;5096344;28;20082;-63
2023/04/26 02:02:06;;;;;;;4.60;2.90;;;;;;;;;;5096759;28;20055;-65
2023/04/26 02:04:32;;;;;;;5.03;3.08;;;;;;;;;;5096581;28;20371;-65
2023/04/26 02:06:59;;;;;;;4.32;3.03;;;;;;;;;;5096707;28;20481;-64
2023/04/26 02:09:25;;;;;;;3.70;2.70;;;;;;;;;;5096326;28;20513;-65
2023/04/26 02:11:52;;;;;;;5.80;2.80;;;;;;;;;;5096710;28;20523;-65
2023/04/26 02:14:20;;;;;;;4.80;2.35;;;;;;;;;;5095795;28;20490;-64
2023/04/26 02:16:47;;;;;;;5.95;2.92;;;;;;;;;;5096569;28;20046;-64
2023/04/26 02:19:14;;;;;;;3.35;2.75;;;;;;;;;;5095944;28;20058;-65
2023/04/26 02:21:51;;;;;;;4.22;2.88;;;;;;;;;;5099644;28;20047;-64
2023/04/26 02:24:18;;;;;;;4.40;2.65;;;;;;;;;;5096606;28;20409;-64
2023/04/26 02:26:44;;;;;;;5.70;2.78;;;;;;;;;;5096348;28;20044;-64
2023/04/26 02:29:11;;;;;;;6.47;2.60;;;;;;;;;;5096474;28;20048;-64
2023/04/26 02:31:39;;;;;;;4.30;2.30;;;;;;;;;;5096662;28;20055;-64
2023/04/26 02:34:06;;;;;;;4.60;2.85;;;;;;;;;;5096465;28;20054;-63
2023/04/26 02:36:32;;;;;;;5.88;2.92;;;;;;;;;;5095606;28;20044;-64
2023/04/26 02:38:59;;;;;;;5.38;3.42;;;;;;;;;;5095938;28;20048;-65
2023/04/26 02:41:26;;;;;;;4.30;2.83;;;;;;;;;;5096041;28;20056;-65
2023/04/26 02:43:55;;;;;;;4.43;2.60;;;;;;;;;;5095416;28;20076;-64
2023/04/26 02:46:22;;;;;;;5.90;2.65;;;;;;;;;;5094876;28;20051;-65
2023/04/26 02:48:50;;;;;;;6.55;3.05;;;;;;;;;;5095042;28;20043;-64
2023/04/26 02:51:17;;;;;;;5.05;2.72;;;;;;;;;;5104399;28;20039;-64
2023/04/26 02:53:43;;;;;;;5.07;3.25;;;;;;;;;;5114568;28;20047;-65
2023/04/26 02:56:10;;;;;;;7.20;3.40;;;;;;;;;;5115339;28;20047;-65
2023/04/26 02:58:37;;;;;;;4.05;2.95;;;;;;;;;;5116037;28;20065;-64
2023/04/26 03:01:04;;;;;;;5.93;3.10;;;;;;;;;;5115568;28;20050;-65
2023/04/26 03:03:31;;;;;;;6.38;3.35;;;;;;;;;;5115423;28;20043;-65
2023/04/26 03:05:58;;;;;;;4.70;3.20;;;;;;;;;;5114075;28;20477;-65
2023/04/26 03:08:25;;;;;;;4.90;2.92;;;;;;;;;;5115080;28;20051;-65
2023/04/26 03:10:52;;;;;;;5.80;3.28;;;;;;;;;;5115487;28;20384;-65
2023/04/26 03:13:18;;;;;;;4.47;3.15;;;;;;;;;;5114881;28;20484;-64
2023/04/26 03:15:45;;;;;;;5.90;3.25;;;;;;;;;;5115776;28;20070;-64
2023/04/26 03:18:12;;;;;;;4.63;2.88;;;;;;;;;;5115060;28;20056;-64
2023/04/26 03:20:39;;;;;;;5.60;2.92;;;;;;;;;;5107895;28;20306;-65
2023/04/26 03:23:07;;;;;;;6.22;3.08;;;;;;;;;;5094356;28;20055;-65
2023/04/26 03:25:34;;;;;;;4.60;3.38;;;;;;;;;;5093760;28;20105;-65
2023/04/26 03:28:01;;;;;;;5.50;3.42;;;;;;;;;;5093925;28;20055;-64
2023/04/26 03:30:27;;;;;;;5.55;3.50;;;;;;;;;;5093687;28;20044;-64
2023/04/26 03:32:54;;;;;;;6.68;3.53;;;;;;;;;;5093971;28;20040;-64
2023/04/26 03:35:22;;;;;;;5.05;3.55;;;;;;;;;;5093789;28;20440;-65
2023/04/26 03:37:49;;;;;;;5.35;3.20;;;;;;;;;;5093913;28;20126;-64
2023/04/26 03:40:17;;;;;;;5.05;3.38;;;;;;;;;;5093841;28;20044;-64
2023/04/26 03:42:44;;;;;;;7.25;3.75;;;;;;;;;;5094105;28;20161;-64
2023/04/26 03:45:13;;;;;;;10.10;3.53;;;;;;;;;;5093399;28;20066;-64
2023/04/26 03:47:39;;;;;;;6.82;3.60;;;;;;;;;;5093946;28;20237;-65
2023/04/26 03:50:08;;;;;;;7.18;3.92;;;;;;;;;;5094337;28;20458;-64
2023/04/26 03:52:34;;;;;;;7.50;4.05;;;;;;;;;;5112156;28;20043;-64
2023/04/26 03:55:01;;;;;;;7.65;3.47;;;;;;;;;;5113316;28;20393;-64
2023/04/26 03:57:29;;;;;;;10.43;3.90;;;;;;;;;;5113492;28;20055;-64
2023/04/26 03:59:56;;;;;;;6.20;3.50;;;;;;;;;;5113596;28;20050;-65
2023/04/26 04:02:23;;;;;;;5.65;3.72;;;;;;;;;;5114098;28;20083;-65
2023/04/26 04:04:50;;;;;;;6.72;3.35;;;;;;;;;;5114357;28;20044;-65
2023/04/26 04:07:16;;;;;;;5.28;3.42;;;;;;;;;;5114122;28;20044;-64
2023/04/26 04:09:43;;;;;;;6.00;3.67;;;;;;;;;;5114779;28;20044;-65
2023/04/26 04:12:10;;;;;;;8.25;3.85;;;;;;;;;;5114897;28;20400;-64
2023/04/26 04:14:38;;;;;;;9.40;3.80;;;;;;;;;;5112812;28;20043;-64
2023/04/26 04:17:05;;;;;;;4.55;3.55;;;;;;;;;;5114429;28;20108;-64
2023/04/26 04:19:32;;;;;;;10.05;3.85;;;;;;;;;;5114528;28;20485;-64
2023/04/26 04:21:59;;;;;;;5.03;3.65;;;;;;;;;;5115080;28;20050;-63
2023/04/26 04:24:28;;;;;;;6.53;3.30;;;;;;;;;;5115060;28;20101;-66
2023/04/26 04:26:55;;;;;;;4.50;3.35;;;;;;;;;;5115102;28;20050;-64
2023/04/26 04:29:22;;;;;;;7.50;4.30;;;;;;;;;;5114277;28;20058;-64
2023/04/26 04:31:50;;;;;;;5.53;3.58;;;;;;;;;;5114300;28;20469;-64
2023/04/26 04:34:16;;;;;;;4.93;3.15;;;;;;;;;;5113717;28;20065;-64
2023/04/26 04:36:43;;;;;;;9.18;3.65;;;;;;;;;;5098498;28;20044;-63
2023/04/26 04:39:14;;;;;;;8.00;3.67;;;;;;;;;;5093299;28;20044;-65
2023/04/26 04:41:46;;;;;;;6.88;3.65;;;;;;;;;;5093252;28;20140;-64
2023/04/26 04:44:14;;;;;;;10.60;4.22;;;;;;;;;;5092778;28;20071;-64
2023/04/26 04:46:41;;;;;;;10.07;3.85;;;;;;;;;;5093408;28;20044;-64
2023/04/26 04:49:09;;;;;;;11.88;4.20;;;;;;;;;;5093056;28;20107;-65
2023/04/26 04:51:36;;;;;;;15.85;4.75;;;;;;;;;;5117150;22;20050;-68
2023/04/26 04:54:10;;;;;;;16.23;7.32;;;;;;;;;;5109285;28;20048;-67
2023/04/26 04:56:36;;;;;;;9.85;4.28;;;;;;;;;;5106012;28;20508;-67
2023/04/26 04:59:03;;;;;;;7.45;3.47;;;;;;;;;;5110086;28;20055;-67
2023/04/26 05:01:31;;;;;;;10.48;4.85;;;;;;;;;;5111161;28;20465;-67
2023/04/26 05:03:57;;;;;;;8.15;3.78;;;;;;;;;;5110601;28;20135;-67
2023/04/26 05:06:26;;;;;;;6.68;4.32;;;;;;;;;;5110768;28;20417;-67
2023/04/26 05:08:53;;;;;;;13.70;4.43;;;;;;;;;;5110777;28;20050;-67
2023/04/26 05:11:20;;;;;;;9.02;4.43;;;;;;;;;;5110591;28;20508;-67
2023/04/26 05:13:47;;;;;;;12.05;4.38;;;;;;;;;;5110396;28;20049;-67
2023/04/26 05:16:14;;;;;;;8.20;4.47;;;;;;;;;;5110561;28;20073;-68
2023/04/26 05:18:40;;;;;;;9.77;4.32;;;;;;;;;;5110413;28;20043;-68
2023/04/26 05:21:07;;;;;;;8.52;4.63;;;;;;;;;;5110300;28;20046;-67
2023/04/26 05:23:35;;;;;;;8.68;5.15;;;;;;;;;;5110447;28;20050;-67
2023/04/26 05:26:03;;;;;;;10.55;4.85;;;;;;;;;;5110156;28;20282;-67
2023/04/26 05:28:30;;;;;;;13.27;5.43;;;;;;;;;;5102025;28;20269;-68
2023/04/26 05:30:56;;;;;;;6.40;4.50;;;;;;;;;;5089521;28;20511;-68
2023/04/26 05:33:23;;;;;;;9.07;5.13;;;;;;;;;;5089943;28;20135;-68
2023/04/26 05:35:51;;;;;;;8.38;4.25;;;;;;;;;;5089231;28;20052;-69
2023/04/26 05:38:18;;;;;;;8.48;4.57;;;;;;;;;;5087781;28;20048;-69
2023/04/26 05:40:47;;;;;;;7.78;4.35;;;;;;;;;;5088849;28;20432;-68
2023/04/26 05:43:13;;;;;;;8.85;4.00;;;;;;;;;;5087803;28;20126;-68
2023/04/26 05:45:40;;;;;;;7.00;4.05;;;;;;;;;;5089985;28;20409;-67
2023/04/26 05:48:07;;;;;;;11.80;6.90;;;;;;;;;;5086731;28;20071;-67
2023/04/26 05:50:33;;;;;;;9.75;5.65;;;;;;;;;;5088044;28;20044;-67
2023/04/26 05:53:00;;;;;;;7.20;4.47;;;;;;;;;;5088747;28;20040;-67
2023/04/26 05:55:26;;;;;;;6.50;3.83;;;;;;;;;;5087118;28;20178;-68
2023/04/26 05:57:54;;;;;;;7.72;4.13;;;;;;;;;;5086882;28;20059;-68
2023/04/26 06:00:22;;;;;;;8.73;3.85;;;;;;;;;;5088388;28;20469;-68
2023/04/26 06:02:49;;;;;;;8.38;4.45;;;;;;;;;;5089081;28;20044;-67
2023/04/26 06:05:16;;;;;;;9.70;4.47;;;;;;;;;;5087107;28;20067;-68
2023/04/26 06:07:43;;;;;;;6.22;4.07;;;;;;;;;;5085361;28;20056;-67
2023/04/26 06:10:11;;;;;;;6.20;3.97;;;;;;;;;;5086244;28;20063;-67
2023/04/26 06:12:38;;;;;;;7.88;4.63;;;;;;;;;;5089202;28;20044;-68
2023/04/26 06:15:07;;;;;;;8.98;4.22;;;;;;;;;;5089125;28;20417;-67
2023/04/26 06:17:33;;;;;;;7.78;4.40;;;;;;;;;;5086420;28;20048;-68
2023/04/26 06:20:00;;;;;;;6.78;4.40;;;;;;;;;;5086953;28;20412;-68
2023/04/26 06:22:27;;;;;;;7.60;4.00;;;;;;;;;;5087932;28;20048;-68
2023/04/26 06:24:53;;;;;;;7.68;4.53;;;;;;;;;;5088330;28;20052;-67
2023/04/26 06:27:20;;;;;;;7.20;4.05;;;;;;;;;;5086799;28;20282;-68
2023/04/26 06:29:46;;;;;;;6.40;4.55;;;;;;;;;;5088179;28;20044;-68
2023/04/26 06:32:14;;;;;;;11.25;5.22;;;;;;;;;;5086967;28;20353;-68
2023/04/26 06:34:42;;;;;;;6.45;4.38;;;;;;;;;;5086680;28;20387;-68
2023/04/26 06:37:09;;;;;;;6.13;4.32;;;;;;;;;;5085700;28;20048;-68
2023/04/26 06:39:37;;;;;;;6.53;4.82;;;;;;;;;;5087848;28;20044;-68
2023/04/26 06:42:04;;;;;;;8.27;5.00;;;;;;;;;;5104139;28;20106;-68
2023/04/26 06:44:30;;;;;;;8.55;4.10;;;;;;;;;;5091491;28;20055;-67
2023/04/26 06:46:57;;;;;;;8.00;4.43;;;;;;;;;;5089063;28;20051;-68
2023/04/26 06:49:26;;;;;;;6.85;4.25;;;;;;;;;;5091625;28;20139;-67
2023/04/26 06:51:52;;;;;;;8.35;4.15;;;;;;;;;;5087069;28;20052;-67
2023/04/26 06:54:19;;;;;;;8.00;3.95;;;;;;;;;;5085865;28;20317;-68
2023/04/26 06:56:46;;;;;;;6.68;4.13;;;;;;;;;;5090471;28;20507;-68
2023/04/26 06:59:13;;;;;;;8.30;3.97;;;;;;;;;;5088809;28;20048;-68
2023/04/26 07:01:39;;;;;;;7.32;3.80;;;;;;;;;;5087986;28;20500;-68
2023/04/26 07:04:08;;;;;;;9.02;3.63;;;;;;;;;;5089355;28;20382;-67
2023/04/26 07:06:37;;;;;;;7.90;4.65;;;;;;;;;;5089909;28;20127;-68
2023/04/26 07:09:04;;;;;;;9.55;5.00;;;;;;;;;;5090588;28;20051;-68
2023/04/26 07:11:31;;;;;;;7.03;4.93;;;;;;;;;;5088989;28;20094;-68
2023/04/26 07:13:58;;;;;;;8.75;4.93;;;;;;;;;;5089468;28;20136;-64
2023/04/26 07:16:24;;;;;;;9.35;4.40;;;;;;;;;;5089240;28;20048;-69
2023/04/26 07:18:51;;;;;;;7.70;4.85;;;;;;;;;;5088546;28;20047;-69
2023/04/26 07:21:18;;;;;;;8.20;5.40;;;;;;;;;;5098632;28;20259;-69
2023/04/26 07:23:46;;;;;;;11.18;5.50;;;;;;;;;;5089847;28;20044;-69
2023/04/26 07:26:13;;;;;;;7.65;4.50;;;;;;;;;;5091068;28;20048;-69
2023/04/26 07:28:39;;;;;;;9.25;4.78;;;;;;;;;;5088958;28;20040;-69
2023/04/26 07:31:06;;;;;;;7.18;4.45;;;;;;;;;;5089056;28;20044;-69
2023/04/26 07:33:33;;;;;;;6.75;4.80;;;;;;;;;;5090030;28;20458;-69
2023/04/26 07:36:00;;;;;;;10.23;5.50;;;;;;;;;;5089351;28;20044;-69
2023/04/26 07:38:27;;;;;;;8.27;4.88;;;;;;;;;;5090270;28;20516;-69
2023/04/26 07:40:55;;;;;;;6.30;4.47;;;;;;;;;;5096717;28;20549;-70
2023/04/26 07:43:22;;;;;;;5.75;4.18;;;;;;;;;;5110733;28;20043;-69
2023/04/26 07:45:49;;;;;;;6.95;4.60;;;;;;;;;;5110616;28;20139;-69
2023/04/26 07:48:16;;;;;;;5.68;3.40;;;;;;;;;;5086298;28;20067;-68
2023/04/26 07:50:42;;;;;;;7.38;3.42;;;;;;;;;;5084321;28;20055;-69
2023/04/26 07:53:09;;;;;;;5.93;3.53;;;;;;;;;;5088549;28;20048;-70
2023/04/26 07:55:36;;;;;;;9.13;3.78;;;;;;;;;;5087260;28;20052;-70
2023/04/26 07:58:04;;;;;;;4.68;3.60;;;;;;;;;;5089708;28;20040;-69
2023/04/26 08:00:31;;;;;;;10.68;3.92;;;;;;;;;;5088573;28;20066;-69
2023/04/26 08:02:57;;;;;;;6.65;3.90;;;;;;;;;;5089900;28;20044;-70
2023/04/26 08:05:24;;;;;;;6.97;3.60;;;;;;;;;;5087647;28;20050;-69
2023/04/26 08:07:51;;;;;;;6.57;3.60;;;;;;;;;;5088857;28;20074;-69
2023/04/26 08:10:17;;;;;;;5.57;3.20;;;;;;;;;;5085687;28;20061;-69
2023/04/26 08:12:44;;;;;;;6.53;3.05;;;;;;;;;;5083377;28;20139;-70
2023/04/26 08:15:12;;;;;;;4.88;3.13;;;;;;;;;;5089528;28;20477;-70
2023/04/26 08:17:40;;;;;;;9.27;3.67;;;;;;;;;;5090193;28;20048;-70
2023/04/26 08:20:08;;;;;;;7.40;3.60;;;;;;;;;;5086980;28;20058;-70
2023/04/26 08:22:35;;;;;;;8.55;4.60;;;;;;;;;;5089466;28;20573;-70
2023/04/26 08:25:03;;;;;;;8.00;4.00;;;;;;;;;;5088630;28;20536;-70
2023/04/26 08:27:30;;;;;;;7.50;3.90;;;;;;;;;;5089206;28;20206;-70
2023/04/26 08:29:57;;;;;;;12.30;4.55;;;;;;;;;;5088785;28;20040;-70
2023/04/26 08:32:26;;;;;;;10.63;4.30;;;;;;;;;;5091755;28;20040;-70
2023/04/26 08:34:52;;;;;;;8.50;4.32;;;;;;;;;;5109981;28;20568;-69
2023/04/26 08:37:19;;;;;;;10.38;4.00;;;;;;;;;;5084688;28;20400;-70
2023/04/26 08:39:45;;;;;;;8.02;4.68;;;;;;;;;;5090193;28;20071;-70
2023/04/26 08:42:14;;;;;;;11.30;4.65;;;;;;;;;;5107338;28;20062;-69
2023/04/26 08:44:42;;;;;;;8.00;4.30;;;;;;;;;;5104408;28;20109;-70
2023/04/26 08:47:16;;;;;;;7.40;3.83;;;;;;;;;;5087403;28;20040;-69
2023/04/26 08:49:52;;;;;;;8.35;4.22;;;;;;;;;;5088163;28;20455;-70
2023/04/26 08:52:22;;;;;;;9.00;4.47;;;;;;;;;;5087386;28;20131;-68
2023/04/26 08:54:50;;;;;;;6.68;4.18;;;;;;;;;;5083855;28;20054;-73
2023/04/26 08:57:18;;;;;;;9.02;4.20;;;;;;;;;;5089341;28;20481;-73
2023/04/26 08:59:45;;;;;;;9.20;4.50;;;;;;;;;;5086249;28;20040;-72
2023/04/26 09:02:16;;;;;;;8.63;4.45;;;;;;;;;;5085907;28;20055;-72
2023/04/26 09:04:44;;;;;;;8.38;4.05;;;;;;;;;;5085088;28;20088;-70
2023/04/26 09:07:16;;;;;;;13.32;4.03;;;;;;;;;;5080281;28;20070;-70
2023/04/26 09:09:47;;;;;;;7.45;3.80;;;;;;;;;;5084388;28;20436;-66
2023/04/26 09:12:15;;;;;;;7.70;3.60;;;;;;;;;;5081267;28;20477;-66
2023/04/26 09:14:42;;;;;;;8.32;3.42;;;;;;;;;;5081977;28;20133;-66
2023/04/26 09:17:30;;;;;;;7.47;3.50;;;;;;;;;;5086585;28;20043;-66
2023/04/26 09:19:57;;;;;;;7.35;3.50;;;;;;;;;;5083270;28;20408;-66
2023/04/26 09:22:33;;;;;;;9.73;3.50;;;;;;;;;;5087709;28;20051;-65
2023/04/26 09:25:00;;;;;;;8.82;3.58;;;;;;;;;;5083181;28;20040;-66
2023/04/26 09:27:33;;;;;;;8.88;3.47;;;;;;;;;;5086595;28;20048;-67
2023/04/26 09:30:05;;;;;;;8.20;3.92;;;;;;;;;;5077686;28;20056;-65
2023/04/26 09:32:44;;;;;;;6.83;3.50;;;;;;;;;;5083860;28;20567;-63
2023/04/26 09:35:21;;;;;;;7.50;3.53;;;;;;;;;;5084922;28;20040;-66
2023/04/26 09:37:53;;;;;;;6.85;3.92;;;;;;;;;;5086913;28;20168;-65
2023/04/26 09:40:21;;;;;;;9.75;3.60;;;;;;;;;;5087239;28;20059;-64
2023/04/26 09:42:56;;;;;;;5.45;3.13;;;;;;;;;;5079326;28;20056;-66
2023/04/26 09:45:23;;;;;;;5.28;3.13;;;;;;;;;;5088052;28;20416;-65
2023/04/26 09:47:50;;;;;;;6.65;3.35;;;;;;;;;;5086566;28;20040;-65
2023/04/26 09:50:26;;;;;;;5.88;3.17;;;;;;;;;;5091824;28;20059;-65
2023/04/26 09:52:55;;;;;;;5.70;3.30;;;;;;;;;;5085580;28;20097;-64
2023/04/26 09:55:31;;;;;;;8.13;3.33;;;;;;;;;;5082875;28;21913;-69
2023/04/26 09:57:59;;;;;;;6.85;2.67;;;;;;;;;;5085867;28;20044;-69
2023/04/26 10:00:27;;;;;;;6.38;2.35;;;;;;;;;;5086890;28;20109;-69
2023/04/26 10:02:54;;;;;;;4.85;2.70;;;;;;;;;;5088529;28;20048;-69
2023/04/26 10:05:21;;;;;;;4.53;2.42;;;;;;;;;;5086858;28;20086;-65
2023/04/26 10:07:50;;;;;;;6.00;3.20;;;;;;;;;;5086101;28;20477;-65
2023/04/26 10:10:18;;;;;;;5.40;2.60;;;;;;;;;;5087775;28;20089;-65
2023/04/26 10:12:45;;;;;;;5.60;2.40;;;;;;;;;;5098760;28;20054;-66
2023/04/26 10:15:13;;;;;;;6.97;3.22;;;;;;;;;;5087638;28;20481;-65
2023/04/26 10:17:39;;;;;;;5.72;2.80;;;;;;;;;;5089378;28;20055;-65
2023/04/26 10:20:11;;;;;;;9.05;2.75;;;;;;;;;;5084827;28;20045;-70
2023/04/26 10:22:45;;;;;;;5.15;2.40;;;;;;;;;;5082080;28;20052;-70
2023/04/26 10:25:12;;;;;;;7.68;2.38;;;;;;;;;;5086059;28;20052;-69
2023/04/26 10:27:51;;;;;;;2.80;1.75;;;;;;;;;;5090500;28;20054;-71
2023/04/26 10:30:20;;;;;;;5.55;2.00;;;;;;;;;;5091977;28;20048;-69
2023/04/26 10:33:17;;;;;;;3.60;2.08;;;;;;;;;;5084056;28;20078;-70
2023/04/26 10:36:05;;;;;;;5.88;2.08;;;;;;;;;;5084828;28;20044;-70
2023/04/26 10:38:32;;;;;;;4.97;1.90;;;;;;;;;;5089106;28;20056;-70
2023/04/26 10:41:30;;;;;;;2.90;1.90;;;;;;;;;;5090170;28;20150;-70
2023/04/26 10:44:00;;;;;;;5.90;1.90;;;;;;;;;;5091171;28;20084;-70
2023/04/26 10:46:35;;;;;;;3.55;1.92;;;;;;;;;;5091949;28;20048;-69
2023/04/26 10:49:16;;;;;;;5.40;1.90;;;;;;;;;;5090640;28;20083;-70
2023/04/26 10:52:13;;;;;;;6.13;2.45;;;;;;;;;;5093661;22;20048;-63
2023/04/26 10:54:54;;;;;;;4.07;1.70;;;;;;;;;;5072265;28;20069;-64
2023/04/26 10:57:22;;;;;;;5.47;2.42;;;;;;;;;;5082317;28;20094;-64
2023/04/26 11:00:25;;;;;;;4.00;2.20;;;;;;;;;;5071150;28;20393;-65
2023/04/26 11:02:57;;;;;;;5.38;2.03;;;;;;;;;;5069843;28;20044;-64
2023/04/26 11:05:54;;;;;;;4.25;2.22;;;;;;;;;;5087098;28;20046;-65
2023/04/26 11:08:24;;;;;;;5.68;2.20;;;;;;;;;;5077633;28;20052;-65
2023/04/26 11:10:57;;;;;;;2.85;1.70;;;;;;;;;;5078064;28;20059;-64
2023/04/26 11:13:24;;;;;;;;;;;;;;;;;;5076717;28;20044;-64
2023/04/26 11:16:01;;;;;;;4.40;2.05;;;;;;;;;;5072036;28;19943;-65
2023/04/26 11:18:28;;;;;;;2.72;2.03;;;;;;;;;;5070701;28;20519;-65
2023/04/26 11:20:55;;;;;;;4.70;2.10;;;;;;;;;;5074537;28;20489;-65
2023/04/26 11:23:23;;;;;;;3.88;1.88;;;;;;;;;;5091722;28;20135;-64
2023/04/26 11:25:50;;;;;;;5.78;2.60;;;;;;;;;;5091031;28;20062;-65
2023/04/26 11:28:19;;;;;;;3.47;2.08;;;;;;;;;;5075409;28;20455;-65
2023/04/26 11:30:45;;;;;;;4.38;2.47;;;;;;;;;;5071218;28;20052;-64
2023/04/26 11:33:18;;;;;;;3.85;1.95;;;;;;;;;;5071175;28;20049;-64
2023/04/26 11:35:46;;;;;;;6.15;2.42;;;;;;;;;;5069614;28;20155;-65
2023/04/26 11:38:14;;;;;;;4.90;2.22;;;;;;;;;;5083916;28;20127;-64
2023/04/26 11:40:41;;;;;;;3.13;1.55;;;;;;;;;;5070559;28;20135;-64
2023/04/26 11:43:08;;;;;;;3.85;1.60;;;;;;;;;;5071019;28;20044;-65
2023/04/26 11:45:37;;;;;;;3.83;1.92;;;;;;;;;;5078386;28;20481;-65
2023/04/26 11:48:06;;;;;;;3.38;1.45;;;;;;;;;;5070348;28;20075;-65
2023/04/26 11:50:37;;;;;;;3.50;1.60;;;;;;;;;;5070877;28;20422;-65
2023/04/26 11:53:06;;;;;;;4.90;1.50;;;;;;;;;;5069604;28;20067;-65
2023/04/26 11:55:34;;;;;;;3.25;1.60;;;;;;;;;;5077194;28;20055;-65
2023/04/26 11:58:02;;;;;;;4.35;1.60;;;;;;;;;;5070230;28;20547;-65
2023/04/26 12:00:29;;;;;;;3.58;1.65;;;;;;;;;;5070634;28;20044;-65
2023/04/26 12:02:56;;;;;;;2.72;1.55;;;;;;;;;;5064559;28;20427;-65
2023/04/26 12:05:25;;;;;;;2.97;1.48;;;;;;;;;;5070856;28;20047;-64
2023/04/26 12:07:54;;;;;;;4.30;1.50;;;;;;;;;;5080912;28;20087;-65
2023/04/26 12:10:25;;;;;;;4.05;1.70;;;;;;;;;;5084549;28;20048;-65
2023/04/26 12:12:53;;;;;;;4.72;1.73;;;;;;;;;;5074585;28;20445;-65
2023/04/26 12:15:23;;;;;;;4.38;1.63;;;;;;;;;;5077027;28;20045;-65
2023/04/26 12:17:57;;;;;;;3.45;1.40;;;;;;;;;;5082932;28;20051;-64
2023/04/26 12:20:31;;;;;;;3.05;1.40;;;;;;;;;;5061708;28;20076;-65
2023/04/26 12:23:04;;;;;;;3.10;1.50;;;;;;;;;;5073176;28;20095;-64
2023/04/26 12:25:32;;;;;;;4.50;1.80;;;;;;;;;;5067314;28;20063;-65
2023/04/26 12:27:59;;;;;;;2.53;1.33;;;;;;;;;;5072134;28;20474;-65
2023/04/26 12:30:26;;;;;;;3.58;1.50;;;;;;;;;;5056803;28;20051;-65
2023/04/26 12:32:53;;;;;;;3.08;1.50;;;;;;;;;;5057362;28;20071;-64
2023/04/26 12:35:20;;;;;;;4.13;1.77;;;;;;;;;;5067506;28;20053;-63
2023/04/26 12:37:48;;;;;;;3.13;1.63;;;;;;;;;;5071472;28;20383;-65
2023/04/26 12:40:18;;;;;;;2.95;1.67;;;;;;;;;;5069741;28;20079;-65
2023/04/26 12:42:45;;;;;;;4.47;1.75;;;;;;;;;;5074327;28;20128;-65
2023/04/26 12:45:11;;;;;;;4.72;1.92;;;;;;;;;;5069752;28;20090;-65
2023/04/26 12:47:40;;;;;;;5.10;1.58;;;;;;;;;;5076009;28;20397;-65
2023/04/26 12:50:10;;;;;;;4.90;1.98;;;;;;;;;;5065440;28;20040;-65
2023/04/26 12:52:37;;;;;;;3.25;1.58;;;;;;;;;;5064747;28;20552;-65
2023/04/26 12:55:04;;;;;;;4.55;1.63;;;;;;;;;;5068890;28;20036;-65
2023/04/26 12:57:32;;;;;;;5.18;2.30;;;;;;;;;;5068290;28;20444;-65
2023/04/26 12:59:59;;;;;;;4.70;2.10;;;;;;;;;;5071706;28;20037;-65
2023/04/26 13:02:25;;;;;;;4.15;2.00;;;;;;;;;;5054181;28;20049;-65
2023/04/26 13:04:52;;;;;;;3.72;1.80;;;;;;;;;;5063909;28;20045;-66
2023/04/26 13:07:20;;;;;;;3.10;1.60;;;;;;;;;;5054091;28;20333;-66
2023/04/26 13:09:46;;;;;;;5.15;2.03;;;;;;;;;;5088487;28;20047;-65
2023/04/26 13:12:13;;;;;;;3.38;1.75;;;;;;;;;;5090767;28;20251;-65
2023/04/26 13:14:41;;;;;;;4.65;1.73;;;;;;;;;;5090890;28;20044;-65
2023/04/26 13:17:09;;;;;;;3.63;1.70;;;;;;;;;;5090475;28;20474;-65
2023/04/26 13:19:36;;;;;;;3.03;1.67;;;;;;;;;;5091513;28;20378;-65
2023/04/26 13:22:06;;;;;;;3.17;1.70;;;;;;;;;;5090919;28;20040;-65
2023/04/26 13:24:33;;;;;;;2.42;1.58;;;;;;;;;;5091392;28;20040;-65
2023/04/26 13:26:59;;;;;;;3.25;1.80;;;;;;;;;;5091214;28;20048;-65
2023/04/26 13:29:26;;;;;;;5.97;1.77;;;;;;;;;;5091818;28;20123;-65
2023/04/26 13:31:54;;;;;;;1.80;1.13;;;;;;;;;;5091576;28;20072;-66
2023/04/26 13:34:21;;;;;;;3.25;1.60;;;;;;;;;;5091448;28;20040;-65
2023/04/26 13:36:47;;;;;;;3.40;1.70;;;;;;;;;;5090676;28;20048;-66
2023/04/26 13:39:15;;;;;;;4.53;1.55;;;;;;;;;;5090954;28;20047;-65
2023/04/26 13:41:41;;;;;;;2.75;1.63;;;;;;;;;;5090838;28;20139;-66
2023/04/26 13:44:08;;;;;;;3.22;1.70;;;;;;;;;;5090323;28;20040;-65
2023/04/26 13:46:35;;;;;;;3.63;1.63;;;;;;;;;;5090504;28;20054;-65
2023/04/26 13:49:02;;;;;;;3.22;1.40;;;;;;;;;;5090466;28;20040;-66
2023/04/26 13:51:31;;;;;;;2.05;1.60;;;;;;;;;;5094804;28;20408;-65
2023/04/26 13:53:57;;;;;;;3.35;1.70;;;;;;;;;;5094764;28;20076;-65
2023/04/26 13:56:24;;;;;;;3.67;1.40;;;;;;;;;;5095051;28;20054;-65
2023/04/26 13:58:55;;;;;;;3.50;1.65;;;;;;;;;;5094233;28;20058;-65
2023/04/26 14:01:21;;;;;;;3.20;1.40;;;;;;;;;;5095092;28;20044;-65
2023/04/26 14:03:48;;;;;;;4.05;1.70;;;;;;;;;;5094054;28;20051;-65
2023/04/26 14:06:16;;;;;;;4.28;1.58;;;;;;;;;;5094178;28;20066;-65
2023/04/26 14:08:42;;;;;;;3.85;1.70;;;;;;;;;;5094310;28;20044;-66
2023/04/26 14:11:10;;;;;;;3.45;1.50;;;;;;;;;;5094656;28;20048;-66
2023/04/26 14:13:38;;;;;;;3.20;1.50;;;;;;;;;;5094312;28;20493;-65
2023/04/26 14:16:05;;;;;;;3.00;1.20;;;;;;;;;;5094423;28;20570;-66
2023/04/26 14:18:32;;;;;;;2.22;1.35;;;;;;;;;;5093821;28;20044;-66
2023/04/26 14:20:58;;;;;;;2.83;1.45;;;;;;;;;;5094419;28;20121;-66
2023/04/26 14:23:26;;;;;;;2.55;1.30;;;;;;;;;;5093922;28;20067;-65
2023/04/26 14:25:53;;;;;;;2.58;1.35;;;;;;;;;;5094083;28;20474;-66
2023/04/26 14:28:20;;;;;;;3.72;1.70;;;;;;;;;;5093603;28;20108;-66
2023/04/26 14:30:47;;;;;;;2.60;1.30;;;;;;;;;;5094085;28;20409;-65
2023/04/26 14:33:13;;;;;;;3.78;2.00;;;;;;;;;;5093699;28;20044;-66
2023/04/26 14:35:40;;;;;;;4.00;1.35;;;;;;;;;;5093896;28;20040;-66
2023/04/26 14:38:07;;;;;;;3.33;1.52;;;;;;;;;;5093857;28;20508;-66
2023/04/26 14:40:36;;;;;;;3.72;1.90;;;;;;;;;;5093483;28;20040;-66
2023/04/26 14:43:02;;;;;;;5.22;1.60;;;;;;;;;;5093714;28;20044;-66
2023/04/26 14:45:32;;;;;;;2.65;1.42;;;;;;;;;;5093379;28;20044;-66
2023/04/26 14:47:59;;;;;;;3.67;1.40;;;;;;;;;;5093985;28;20044;-66
2023/04/26 14:50:25;;;;;;;3.53;1.45;;;;;;;;;;5093622;28;20414;-65